sensor_id;sensor_type;location;lat;lon;timestamp;P1;durP1;ratioP1;P2;durP2;ratioP2
1721;SDS011;858;53.190;8.596;2023-09-19T00:00:03;7.50;;;3.53;;
1721;SDS011;858;53.190;8.596;2023-09-19T00:02:31;6.20;;;3.97;;
1721;SDS011;858;53.190;8.596;2023-09-19T00:04:59;8.53;;;4.30;;
1721;SDS011;858;53.190;8.596;2023-09-19T00:07:28;13.70;;;5.63;;
1721;SDS011;858;53.190;8.596;2023-09-19T00:09:54;11.27;;;4.60;;
1721;SDS011;858;53.190;8.596;2023-09-19T00:12:22;8.77;;;4.70;;
1721;SDS011;858;53.190;8.596;2023-09-19T00:14:49;9.67;;;4.40;;
1721;SDS011;858;53.190;8.596;2023-09-19T00:17:16;8.00;;;3.90;;
1721;SDS011;858;53.190;8.596;2023-09-19T00:19:42;6.20;;;4.53;;
1721;SDS011;858;53.190;8.596;2023-09-19T00:22:12;6.27;;;4.30;;
1721;SDS011;858;53.190;8.596;2023-09-19T00:24:40;12.03;;;4.23;;
1721;SDS011;858;53.190;8.596;2023-09-19T00:27:07;6.50;;;4.10;;
1721;SDS011;858;53.190;8.596;2023-09-19T00:29:33;7.43;;;4.07;;
1721;SDS011;858;53.190;8.596;2023-09-19T00:32:00;11.60;;;3.70;;
1721;SDS011;858;53.190;8.596;2023-09-19T00:34:28;5.87;;;4.20;;
1721;SDS011;858;53.190;8.596;2023-09-19T00:36:55;7.37;;;3.70;;
1721;SDS011;858;53.190;8.596;2023-09-19T00:39:23;5.53;;;3.40;;
1721;SDS011;858;53.190;8.596;2023-09-19T00:41:50;6.00;;;3.20;;
1721;SDS011;858;53.190;8.596;2023-09-19T00:44:17;5.03;;;3.20;;
1721;SDS011;858;53.190;8.596;2023-09-19T00:46:45;4.20;;;2.73;;
1721;SDS011;858;53.190;8.596;2023-09-19T00:49:14;4.83;;;3.30;;
1721;SDS011;858;53.190;8.596;2023-09-19T00:51:40;7.97;;;4.00;;
1721;SDS011;858;53.190;8.596;2023-09-19T00:54:10;5.43;;;3.47;;
1721;SDS011;858;53.190;8.596;2023-09-19T00:56:39;5.13;;;3.63;;
1721;SDS011;858;53.190;8.596;2023-09-19T00:59:08;5.30;;;3.53;;
1721;SDS011;858;53.190;8.596;2023-09-19T01:01:36;7.30;;;3.60;;
1721;SDS011;858;53.190;8.596;2023-09-19T01:04:06;6.20;;;3.70;;
1721;SDS011;858;53.190;8.596;2023-09-19T01:06:32;6.00;;;2.80;;
1721;SDS011;858;53.190;8.596;2023-09-19T01:08:59;6.87;;;3.67;;
1721;SDS011;858;53.190;8.596;2023-09-19T01:11:27;9.47;;;3.77;;
1721;SDS011;858;53.190;8.596;2023-09-19T01:13:57;8.30;;;3.10;;
1721;SDS011;858;53.190;8.596;2023-09-19T01:16:32;7.27;;;3.57;;
1721;SDS011;858;53.190;8.596;2023-09-19T01:19:02;5.93;;;3.20;;
1721;SDS011;858;53.190;8.596;2023-09-19T01:21:35;6.97;;;3.80;;
1721;SDS011;858;53.190;8.596;2023-09-19T01:26:52;10.07;;;3.43;;
1721;SDS011;858;53.190;8.596;2023-09-19T01:29:26;6.00;;;3.20;;
1721;SDS011;858;53.190;8.596;2023-09-19T01:32:03;5.90;;;3.60;;
1721;SDS011;858;53.190;8.596;2023-09-19T01:34:42;10.70;;;3.50;;
1721;SDS011;858;53.190;8.596;2023-09-19T01:37:10;11.40;;;3.50;;
1721;SDS011;858;53.190;8.596;2023-09-19T01:39:37;5.70;;;3.10;;
1721;SDS011;858;53.190;8.596;2023-09-19T01:42:05;9.30;;;3.33;;
1721;SDS011;858;53.190;8.596;2023-09-19T01:44:36;10.07;;;3.60;;
1721;SDS011;858;53.190;8.596;2023-09-19T01:47:10;6.10;;;3.10;;
1721;SDS011;858;53.190;8.596;2023-09-19T01:49:41;7.20;;;3.43;;
1721;SDS011;858;53.190;8.596;2023-09-19T01:52:11;6.60;;;3.60;;
1721;SDS011;858;53.190;8.596;2023-09-19T01:54:41;5.77;;;3.53;;
1721;SDS011;858;53.190;8.596;2023-09-19T01:57:14;5.83;;;2.93;;
1721;SDS011;858;53.190;8.596;2023-09-19T01:59:41;8.80;;;3.10;;
1721;SDS011;858;53.190;8.596;2023-09-19T02:02:10;12.70;;;3.43;;
1721;SDS011;858;53.190;8.596;2023-09-19T02:04:38;3.93;;;3.33;;
1721;SDS011;858;53.190;8.596;2023-09-19T02:07:04;16.97;;;4.50;;
1721;SDS011;858;53.190;8.596;2023-09-19T02:09:33;5.80;;;3.10;;
1721;SDS011;858;53.190;8.596;2023-09-19T02:12:04;6.87;;;3.10;;
1721;SDS011;858;53.190;8.596;2023-09-19T02:14:30;5.30;;;2.27;;
1721;SDS011;858;53.190;8.596;2023-09-19T02:16:57;7.23;;;2.93;;
1721;SDS011;858;53.190;8.596;2023-09-19T02:19:26;7.57;;;2.10;;
1721;SDS011;858;53.190;8.596;2023-09-19T02:21:53;3.03;;;1.90;;
1721;SDS011;858;53.190;8.596;2023-09-19T02:24:20;3.93;;;2.57;;
1721;SDS011;858;53.190;8.596;2023-09-19T02:26:51;4.27;;;2.23;;
1721;SDS011;858;53.190;8.596;2023-09-19T02:29:19;4.50;;;1.97;;
1721;SDS011;858;53.190;8.596;2023-09-19T02:31:48;8.20;;;2.43;;
1721;SDS011;858;53.190;8.596;2023-09-19T02:34:14;6.03;;;2.10;;
1721;SDS011;858;53.190;8.596;2023-09-19T02:36:43;3.47;;;2.00;;
1721;SDS011;858;53.190;8.596;2023-09-19T02:39:09;6.90;;;2.20;;
1721;SDS011;858;53.190;8.596;2023-09-19T02:41:36;5.60;;;2.17;;
1721;SDS011;858;53.190;8.596;2023-09-19T02:44:03;9.77;;;2.80;;
1721;SDS011;858;53.190;8.596;2023-09-19T02:46:32;2.23;;;1.80;;
1721;SDS011;858;53.190;8.596;2023-09-19T02:48:59;4.70;;;2.00;;
1721;SDS011;858;53.190;8.596;2023-09-19T02:51:25;7.40;;;2.30;;
1721;SDS011;858;53.190;8.596;2023-09-19T02:53:54;3.20;;;2.40;;
1721;SDS011;858;53.190;8.596;2023-09-19T02:56:20;5.57;;;2.63;;
1721;SDS011;858;53.190;8.596;2023-09-19T02:58:47;5.83;;;2.10;;
1721;SDS011;858;53.190;8.596;2023-09-19T03:01:14;9.03;;;2.10;;
1721;SDS011;858;53.190;8.596;2023-09-19T03:03:41;6.20;;;2.60;;
1721;SDS011;858;53.190;8.596;2023-09-19T03:06:07;5.27;;;2.30;;
1721;SDS011;858;53.190;8.596;2023-09-19T03:08:34;6.10;;;2.60;;
1721;SDS011;858;53.190;8.596;2023-09-19T03:11:06;7.57;;;2.43;;
1721;SDS011;858;53.190;8.596;2023-09-19T03:13:36;6.63;;;3.30;;
1721;SDS011;858;53.190;8.596;2023-09-19T03:16:04;6.93;;;2.80;;
1721;SDS011;858;53.190;8.596;2023-09-19T03:18:31;7.10;;;2.47;;
1721;SDS011;858;53.190;8.596;2023-09-19T03:20:58;7.50;;;2.50;;
1721;SDS011;858;53.190;8.596;2023-09-19T03:23:25;7.47;;;2.90;;
1721;SDS011;858;53.190;8.596;2023-09-19T03:25:52;12.60;;;3.27;;
1721;SDS011;858;53.190;8.596;2023-09-19T03:28:21;6.00;;;2.70;;
1721;SDS011;858;53.190;8.596;2023-09-19T03:30:56;7.57;;;3.10;;
1721;SDS011;858;53.190;8.596;2023-09-19T03:33:24;7.73;;;3.60;;
1721;SDS011;858;53.190;8.596;2023-09-19T03:35:51;7.33;;;3.10;;
1721;SDS011;858;53.190;8.596;2023-09-19T03:38:22;5.30;;;2.60;;
1721;SDS011;858;53.190;8.596;2023-09-19T03:40:48;8.80;;;2.67;;
1721;SDS011;858;53.190;8.596;2023-09-19T03:43:14;5.30;;;2.80;;
1721;SDS011;858;53.190;8.596;2023-09-19T03:45:42;7.30;;;2.40;;
1721;SDS011;858;53.190;8.596;2023-09-19T03:48:09;8.60;;;2.97;;
1721;SDS011;858;53.190;8.596;2023-09-19T03:50:36;11.53;;;2.80;;
1721;SDS011;858;53.190;8.596;2023-09-19T03:53:03;2.80;;;2.33;;
1721;SDS011;858;53.190;8.596;2023-09-19T03:55:30;5.53;;;2.50;;
1721;SDS011;858;53.190;8.596;2023-09-19T03:57:57;6.67;;;2.87;;
1721;SDS011;858;53.190;8.596;2023-09-19T04:00:23;4.83;;;2.83;;
1721;SDS011;858;53.190;8.596;2023-09-19T04:02:53;10.47;;;2.80;;
1721;SDS011;858;53.190;8.596;2023-09-19T04:05:21;7.53;;;3.20;;
1721;SDS011;858;53.190;8.596;2023-09-19T04:07:47;6.43;;;3.00;;
1721;SDS011;858;53.190;8.596;2023-09-19T04:10:14;7.43;;;2.93;;
1721;SDS011;858;53.190;8.596;2023-09-19T04:12:40;10.47;;;3.00;;
1721;SDS011;858;53.190;8.596;2023-09-19T04:15:08;8.63;;;3.17;;
1721;SDS011;858;53.190;8.596;2023-09-19T04:17:38;8.93;;;3.70;;
1721;SDS011;858;53.190;8.596;2023-09-19T04:20:07;6.13;;;2.37;;
1721;SDS011;858;53.190;8.596;2023-09-19T04:22:34;13.00;;;3.10;;
1721;SDS011;858;53.190;8.596;2023-09-19T04:25:00;9.43;;;2.83;;
1721;SDS011;858;53.190;8.596;2023-09-19T04:27:27;7.80;;;2.97;;
1721;SDS011;858;53.190;8.596;2023-09-19T04:29:54;8.57;;;3.00;;
1721;SDS011;858;53.190;8.596;2023-09-19T04:32:24;6.07;;;2.13;;
1721;SDS011;858;53.190;8.596;2023-09-19T04:34:50;8.70;;;3.50;;
1721;SDS011;858;53.190;8.596;2023-09-19T04:37:18;12.77;;;2.80;;
1721;SDS011;858;53.190;8.596;2023-09-19T04:39:44;12.50;;;3.27;;
1721;SDS011;858;53.190;8.596;2023-09-19T04:42:12;5.40;;;3.27;;
1721;SDS011;858;53.190;8.596;2023-09-19T04:44:40;8.30;;;3.03;;
1721;SDS011;858;53.190;8.596;2023-09-19T04:47:07;9.80;;;2.67;;
1721;SDS011;858;53.190;8.596;2023-09-19T04:49:34;8.63;;;2.90;;
1721;SDS011;858;53.190;8.596;2023-09-19T04:52:01;5.90;;;2.90;;
1721;SDS011;858;53.190;8.596;2023-09-19T04:54:29;8.10;;;2.90;;
1721;SDS011;858;53.190;8.596;2023-09-19T04:56:56;7.53;;;3.77;;
1721;SDS011;858;53.190;8.596;2023-09-19T04:59:22;7.57;;;3.30;;
1721;SDS011;858;53.190;8.596;2023-09-19T05:01:49;12.80;;;3.40;;
1721;SDS011;858;53.190;8.596;2023-09-19T05:04:16;8.67;;;3.83;;
1721;SDS011;858;53.190;8.596;2023-09-19T05:06:42;6.80;;;2.90;;
1721;SDS011;858;53.190;8.596;2023-09-19T05:09:08;8.67;;;2.93;;
1721;SDS011;858;53.190;8.596;2023-09-19T05:11:36;9.03;;;3.17;;
1721;SDS011;858;53.190;8.596;2023-09-19T05:14:04;8.70;;;3.33;;
1721;SDS011;858;53.190;8.596;2023-09-19T05:16:30;9.90;;;3.20;;
1721;SDS011;858;53.190;8.596;2023-09-19T05:18:58;11.30;;;3.47;;
1721;SDS011;858;53.190;8.596;2023-09-19T05:21:25;5.67;;;2.50;;
1721;SDS011;858;53.190;8.596;2023-09-19T05:23:53;9.37;;;3.53;;
1721;SDS011;858;53.190;8.596;2023-09-19T05:26:20;6.03;;;2.90;;
1721;SDS011;858;53.190;8.596;2023-09-19T05:28:48;10.47;;;3.00;;
1721;SDS011;858;53.190;8.596;2023-09-19T05:31:14;4.10;;;3.17;;
1721;SDS011;858;53.190;8.596;2023-09-19T05:33:41;6.03;;;2.90;;
1721;SDS011;858;53.190;8.596;2023-09-19T05:36:08;8.33;;;3.00;;
1721;SDS011;858;53.190;8.596;2023-09-19T05:38:37;8.67;;;3.20;;
1721;SDS011;858;53.190;8.596;2023-09-19T05:41:07;12.83;;;3.40;;
1721;SDS011;858;53.190;8.596;2023-09-19T05:43:38;8.70;;;3.53;;
1721;SDS011;858;53.190;8.596;2023-09-19T05:46:07;6.73;;;3.43;;
1721;SDS011;858;53.190;8.596;2023-09-19T05:48:34;16.50;;;4.00;;
1721;SDS011;858;53.190;8.596;2023-09-19T05:51:01;12.43;;;3.47;;
1721;SDS011;858;53.190;8.596;2023-09-19T05:53:27;6.17;;;3.60;;
1721;SDS011;858;53.190;8.596;2023-09-19T05:55:54;7.47;;;3.30;;
1721;SDS011;858;53.190;8.596;2023-09-19T05:58:20;10.80;;;3.23;;
1721;SDS011;858;53.190;8.596;2023-09-19T06:00:47;7.87;;;3.47;;
1721;SDS011;858;53.190;8.596;2023-09-19T06:03:15;13.07;;;3.77;;
1721;SDS011;858;53.190;8.596;2023-09-19T06:05:43;11.43;;;4.30;;
1721;SDS011;858;53.190;8.596;2023-09-19T06:08:11;8.80;;;4.00;;
1721;SDS011;858;53.190;8.596;2023-09-19T06:10:37;9.80;;;3.87;;
1721;SDS011;858;53.190;8.596;2023-09-19T06:13:04;12.37;;;3.77;;
1721;SDS011;858;53.190;8.596;2023-09-19T06:15:31;8.90;;;4.07;;
1721;SDS011;858;53.190;8.596;2023-09-19T06:17:58;17.67;;;3.87;;
1721;SDS011;858;53.190;8.596;2023-09-19T06:20:29;6.43;;;3.10;;
1721;SDS011;858;53.190;8.596;2023-09-19T06:22:58;9.60;;;4.37;;
1721;SDS011;858;53.190;8.596;2023-09-19T06:25:24;12.00;;;4.63;;
1721;SDS011;858;53.190;8.596;2023-09-19T06:27:51;14.33;;;4.07;;
1721;SDS011;858;53.190;8.596;2023-09-19T06:30:19;11.03;;;3.67;;
1721;SDS011;858;53.190;8.596;2023-09-19T06:32:45;5.67;;;3.60;;
1721;SDS011;858;53.190;8.596;2023-09-19T06:35:12;10.60;;;4.17;;
1721;SDS011;858;53.190;8.596;2023-09-19T06:37:40;10.63;;;3.73;;
1721;SDS011;858;53.190;8.596;2023-09-19T06:40:07;15.43;;;4.20;;
1721;SDS011;858;53.190;8.596;2023-09-19T06:42:38;12.47;;;4.60;;
1721;SDS011;858;53.190;8.596;2023-09-19T06:45:05;13.80;;;4.10;;
1721;SDS011;858;53.190;8.596;2023-09-19T06:47:31;9.30;;;3.80;;
1721;SDS011;858;53.190;8.596;2023-09-19T06:49:58;11.87;;;3.77;;
1721;SDS011;858;53.190;8.596;2023-09-19T06:52:27;15.90;;;4.93;;
1721;SDS011;858;53.190;8.596;2023-09-19T06:54:55;12.20;;;5.73;;
1721;SDS011;858;53.190;8.596;2023-09-19T06:57:22;13.73;;;3.83;;
1721;SDS011;858;53.190;8.596;2023-09-19T06:59:49;13.23;;;3.43;;
1721;SDS011;858;53.190;8.596;2023-09-19T07:02:16;13.00;;;4.83;;
1721;SDS011;858;53.190;8.596;2023-09-19T07:04:43;13.03;;;4.30;;
1721;SDS011;858;53.190;8.596;2023-09-19T07:07:09;21.63;;;5.30;;
1721;SDS011;858;53.190;8.596;2023-09-19T07:09:37;17.13;;;4.30;;
1721;SDS011;858;53.190;8.596;2023-09-19T07:12:06;14.63;;;4.17;;
1721;SDS011;858;53.190;8.596;2023-09-19T07:14:33;10.97;;;3.90;;
1721;SDS011;858;53.190;8.596;2023-09-19T07:16:59;22.20;;;4.60;;
1721;SDS011;858;53.190;8.596;2023-09-19T07:19:27;13.00;;;4.27;;
1721;SDS011;858;53.190;8.596;2023-09-19T07:21:55;11.40;;;3.87;;
1721;SDS011;858;53.190;8.596;2023-09-19T07:24:23;18.80;;;4.23;;
1721;SDS011;858;53.190;8.596;2023-09-19T07:26:52;12.40;;;3.43;;
1721;SDS011;858;53.190;8.596;2023-09-19T07:29:20;16.07;;;4.23;;
1721;SDS011;858;53.190;8.596;2023-09-19T07:31:46;18.30;;;4.10;;
1721;SDS011;858;53.190;8.596;2023-09-19T07:34:13;11.97;;;3.77;;
1721;SDS011;858;53.190;8.596;2023-09-19T07:36:40;8.57;;;3.60;;
1721;SDS011;858;53.190;8.596;2023-09-19T07:39:07;11.07;;;4.20;;
1721;SDS011;858;53.190;8.596;2023-09-19T07:41:33;9.20;;;3.70;;
1721;SDS011;858;53.190;8.596;2023-09-19T07:44:00;17.70;;;4.10;;
1721;SDS011;858;53.190;8.596;2023-09-19T07:46:28;11.20;;;3.60;;
1721;SDS011;858;53.190;8.596;2023-09-19T07:48:56;12.83;;;3.53;;
1721;SDS011;858;53.190;8.596;2023-09-19T07:51:23;13.83;;;3.40;;
1721;SDS011;858;53.190;8.596;2023-09-19T07:53:49;10.63;;;3.00;;
1721;SDS011;858;53.190;8.596;2023-09-19T07:56:17;10.40;;;4.57;;
1721;SDS011;858;53.190;8.596;2023-09-19T07:58:45;7.23;;;3.03;;
1721;SDS011;858;53.190;8.596;2023-09-19T08:01:11;13.00;;;3.67;;
1721;SDS011;858;53.190;8.596;2023-09-19T08:03:40;12.17;;;4.10;;
1721;SDS011;858;53.190;8.596;2023-09-19T08:06:07;11.67;;;3.17;;
1721;SDS011;858;53.190;8.596;2023-09-19T08:08:35;12.83;;;3.20;;
1721;SDS011;858;53.190;8.596;2023-09-19T08:11:02;12.07;;;2.70;;
1721;SDS011;858;53.190;8.596;2023-09-19T08:13:35;14.27;;;3.80;;
1721;SDS011;858;53.190;8.596;2023-09-19T08:16:02;11.20;;;3.00;;
1721;SDS011;858;53.190;8.596;2023-09-19T08:18:29;9.67;;;3.63;;
1721;SDS011;858;53.190;8.596;2023-09-19T08:20:57;8.27;;;2.80;;
1721;SDS011;858;53.190;8.596;2023-09-19T08:23:25;12.50;;;3.70;;
1721;SDS011;858;53.190;8.596;2023-09-19T08:25:55;11.00;;;3.27;;
1721;SDS011;858;53.190;8.596;2023-09-19T08:28:23;9.43;;;3.77;;
1721;SDS011;858;53.190;8.596;2023-09-19T08:30:49;9.20;;;3.70;;
1721;SDS011;858;53.190;8.596;2023-09-19T08:33:16;7.53;;;2.80;;
1721;SDS011;858;53.190;8.596;2023-09-19T08:35:42;8.80;;;3.23;;
1721;SDS011;858;53.190;8.596;2023-09-19T08:38:11;11.63;;;3.60;;
1721;SDS011;858;53.190;8.596;2023-09-19T08:40:39;10.27;;;3.00;;
1721;SDS011;858;53.190;8.596;2023-09-19T08:43:07;10.50;;;3.37;;
1721;SDS011;858;53.190;8.596;2023-09-19T08:45:33;15.57;;;3.63;;
1721;SDS011;858;53.190;8.596;2023-09-19T08:48:03;7.53;;;2.73;;
1721;SDS011;858;53.190;8.596;2023-09-19T08:50:33;10.60;;;3.43;;
1721;SDS011;858;53.190;8.596;2023-09-19T08:53:04;13.20;;;3.00;;
1721;SDS011;858;53.190;8.596;2023-09-19T08:55:37;10.30;;;2.60;;
1721;SDS011;858;53.190;8.596;2023-09-19T08:58:04;6.40;;;3.10;;
1721;SDS011;858;53.190;8.596;2023-09-19T09:00:33;8.90;;;3.53;;
1721;SDS011;858;53.190;8.596;2023-09-19T09:03:01;8.40;;;2.80;;
1721;SDS011;858;53.190;8.596;2023-09-19T09:05:29;8.10;;;2.90;;
1721;SDS011;858;53.190;8.596;2023-09-19T09:07:57;7.43;;;3.00;;
1721;SDS011;858;53.190;8.596;2023-09-19T09:10:24;12.90;;;3.60;;
1721;SDS011;858;53.190;8.596;2023-09-19T09:12:53;6.80;;;3.77;;
1721;SDS011;858;53.190;8.596;2023-09-19T09:15:21;11.10;;;4.50;;
1721;SDS011;858;53.190;8.596;2023-09-19T09:17:48;13.13;;;3.73;;
1721;SDS011;858;53.190;8.596;2023-09-19T09:20:15;11.47;;;3.23;;
1721;SDS011;858;53.190;8.596;2023-09-19T09:22:49;11.27;;;2.77;;
1721;SDS011;858;53.190;8.596;2023-09-19T09:25:16;10.27;;;2.60;;
1721;SDS011;858;53.190;8.596;2023-09-19T09:27:43;12.80;;;3.57;;
1721;SDS011;858;53.190;8.596;2023-09-19T09:30:11;7.40;;;2.93;;
1721;SDS011;858;53.190;8.596;2023-09-19T09:33:07;10.10;;;2.47;;
1721;SDS011;858;53.190;8.596;2023-09-19T09:35:33;6.87;;;2.57;;
1721;SDS011;858;53.190;8.596;2023-09-19T09:38:00;10.73;;;3.70;;
1721;SDS011;858;53.190;8.596;2023-09-19T09:40:35;9.10;;;2.40;;
1721;SDS011;858;53.190;8.596;2023-09-19T09:43:24;8.30;;;2.63;;
1721;SDS011;858;53.190;8.596;2023-09-19T09:46:07;10.90;;;3.00;;
1721;SDS011;858;53.190;8.596;2023-09-19T09:48:57;8.57;;;2.70;;
1721;SDS011;858;53.190;8.596;2023-09-19T09:51:43;6.30;;;2.63;;
1721;SDS011;858;53.190;8.596;2023-09-19T09:54:12;6.30;;;2.40;;
1721;SDS011;858;53.190;8.596;2023-09-19T09:56:52;8.80;;;2.87;;
1721;SDS011;858;53.190;8.596;2023-09-19T09:59:19;6.83;;;2.67;;
1721;SDS011;858;53.190;8.596;2023-09-19T10:01:50;6.00;;;2.60;;
1721;SDS011;858;53.190;8.596;2023-09-19T10:04:26;12.37;;;3.23;;
1721;SDS011;858;53.190;8.596;2023-09-19T10:06:54;8.90;;;3.33;;
1721;SDS011;858;53.190;8.596;2023-09-19T10:09:20;7.50;;;2.90;;
1721;SDS011;858;53.190;8.596;2023-09-19T10:12:00;8.83;;;2.90;;
1721;SDS011;858;53.190;8.596;2023-09-19T10:14:29;12.60;;;3.60;;
1721;SDS011;858;53.190;8.596;2023-09-19T10:16:58;8.07;;;3.00;;
1721;SDS011;858;53.190;8.596;2023-09-19T10:19:29;11.03;;;2.93;;
1721;SDS011;858;53.190;8.596;2023-09-19T10:21:59;14.10;;;2.93;;
1721;SDS011;858;53.190;8.596;2023-09-19T10:24:26;8.23;;;2.80;;
1721;SDS011;858;53.190;8.596;2023-09-19T10:26:54;17.80;;;3.90;;
1721;SDS011;858;53.190;8.596;2023-09-19T10:29:21;13.50;;;3.63;;
1721;SDS011;858;53.190;8.596;2023-09-19T10:31:49;11.77;;;3.60;;
1721;SDS011;858;53.190;8.596;2023-09-19T10:34:20;9.70;;;3.27;;
1721;SDS011;858;53.190;8.596;2023-09-19T10:36:48;8.30;;;2.80;;
1721;SDS011;858;53.190;8.596;2023-09-19T10:39:17;13.60;;;5.20;;
1721;SDS011;858;53.190;8.596;2023-09-19T10:41:47;12.97;;;3.10;;
1721;SDS011;858;53.190;8.596;2023-09-19T10:44:18;8.80;;;3.80;;
1721;SDS011;858;53.190;8.596;2023-09-19T10:46:46;12.07;;;3.40;;
1721;SDS011;858;53.190;8.596;2023-09-19T10:49:13;9.57;;;3.57;;
1721;SDS011;858;53.190;8.596;2023-09-19T10:51:42;7.83;;;3.57;;
1721;SDS011;858;53.190;8.596;2023-09-19T10:54:10;14.77;;;3.40;;
1721;SDS011;858;53.190;8.596;2023-09-19T10:56:38;10.20;;;3.77;;
1721;SDS011;858;53.190;8.596;2023-09-19T10:59:07;11.10;;;3.37;;
1721;SDS011;858;53.190;8.596;2023-09-19T11:01:44;7.90;;;3.67;;
1721;SDS011;858;53.190;8.596;2023-09-19T11:07:01;8.63;;;3.50;;
1721;SDS011;858;53.190;8.596;2023-09-19T11:12:12;10.37;;;3.10;;
1721;SDS011;858;53.190;8.596;2023-09-19T11:14:41;8.40;;;3.13;;
1721;SDS011;858;53.190;8.596;2023-09-19T11:20:24;10.93;;;3.40;;
1721;SDS011;858;53.190;8.596;2023-09-19T11:23:21;11.70;;;3.03;;
1721;SDS011;858;53.190;8.596;2023-09-19T11:25:53;7.20;;;2.87;;
1721;SDS011;858;53.190;8.596;2023-09-19T11:33:49;7.30;;;2.47;;
1721;SDS011;858;53.190;8.596;2023-09-19T11:36:35;8.73;;;2.87;;
1721;SDS011;858;53.190;8.596;2023-09-19T11:39:05;9.30;;;3.10;;
1721;SDS011;858;53.190;8.596;2023-09-19T11:41:40;15.17;;;3.50;;
1721;SDS011;858;53.190;8.596;2023-09-19T11:46:52;9.30;;;3.33;;
1721;SDS011;858;53.190;8.596;2023-09-19T11:49:19;8.80;;;3.20;;
1721;SDS011;858;53.190;8.596;2023-09-19T11:51:51;8.27;;;3.47;;
1721;SDS011;858;53.190;8.596;2023-09-19T11:54:20;10.00;;;2.90;;
1721;SDS011;858;53.190;8.596;2023-09-19T11:56:48;15.53;;;3.37;;
1721;SDS011;858;53.190;8.596;2023-09-19T11:59:19;7.47;;;2.90;;
1721;SDS011;858;53.190;8.596;2023-09-19T12:01:50;7.83;;;3.20;;
1721;SDS011;858;53.190;8.596;2023-09-19T12:04:31;12.23;;;2.60;;
1721;SDS011;858;53.190;8.596;2023-09-19T12:07:02;9.60;;;3.00;;
1721;SDS011;858;53.190;8.596;2023-09-19T12:09:31;9.63;;;3.57;;
1721;SDS011;858;53.190;8.596;2023-09-19T12:11:57;11.53;;;3.07;;
1721;SDS011;858;53.190;8.596;2023-09-19T12:14:24;8.00;;;2.60;;
1721;SDS011;858;53.190;8.596;2023-09-19T12:16:54;11.20;;;3.13;;
1721;SDS011;858;53.190;8.596;2023-09-19T12:19:26;6.40;;;3.07;;
1721;SDS011;858;53.190;8.596;2023-09-19T12:21:54;10.67;;;3.60;;
1721;SDS011;858;53.190;8.596;2023-09-19T12:24:21;6.77;;;4.00;;
1721;SDS011;858;53.190;8.596;2023-09-19T12:26:49;8.70;;;2.47;;
1721;SDS011;858;53.190;8.596;2023-09-19T12:29:18;8.43;;;3.87;;
1721;SDS011;858;53.190;8.596;2023-09-19T12:31:48;8.23;;;2.77;;
1721;SDS011;858;53.190;8.596;2023-09-19T12:34:17;8.37;;;2.97;;
1721;SDS011;858;53.190;8.596;2023-09-19T12:36:44;11.30;;;3.30;;
1721;SDS011;858;53.190;8.596;2023-09-19T12:39:11;12.00;;;3.10;;
1721;SDS011;858;53.190;8.596;2023-09-19T12:41:39;8.07;;;3.17;;
1721;SDS011;858;53.190;8.596;2023-09-19T12:44:06;8.77;;;3.13;;
1721;SDS011;858;53.190;8.596;2023-09-19T12:46:34;7.80;;;2.70;;
1721;SDS011;858;53.190;8.596;2023-09-19T12:49:16;11.13;;;3.23;;
1721;SDS011;858;53.190;8.596;2023-09-19T12:51:47;6.27;;;2.67;;
1721;SDS011;858;53.190;8.596;2023-09-19T12:54:13;6.87;;;2.83;;
1721;SDS011;858;53.190;8.596;2023-09-19T12:56:41;9.37;;;3.80;;
1721;SDS011;858;53.190;8.596;2023-09-19T12:59:11;8.50;;;2.83;;
1721;SDS011;858;53.190;8.596;2023-09-19T13:01:38;7.53;;;2.87;;
1721;SDS011;858;53.190;8.596;2023-09-19T13:04:10;10.10;;;3.00;;
1721;SDS011;858;53.190;8.596;2023-09-19T13:06:38;7.40;;;2.90;;
1721;SDS011;858;53.190;8.596;2023-09-19T13:09:08;8.50;;;2.97;;
1721;SDS011;858;53.190;8.596;2023-09-19T13:11:36;6.13;;;2.87;;
1721;SDS011;858;53.190;8.596;2023-09-19T13:14:16;8.80;;;3.97;;
1721;SDS011;858;53.190;8.596;2023-09-19T13:16:53;8.40;;;3.20;;
1721;SDS011;858;53.190;8.596;2023-09-19T13:19:34;8.80;;;3.60;;
1721;SDS011;858;53.190;8.596;2023-09-19T13:22:01;10.07;;;2.40;;
1721;SDS011;858;53.190;8.596;2023-09-19T13:24:27;5.60;;;2.73;;
1721;SDS011;858;53.190;8.596;2023-09-19T13:26:55;13.83;;;3.27;;
1721;SDS011;858;53.190;8.596;2023-09-19T13:29:24;7.53;;;3.40;;
1721;SDS011;858;53.190;8.596;2023-09-19T13:31:52;9.80;;;3.03;;
1721;SDS011;858;53.190;8.596;2023-09-19T13:34:19;8.43;;;3.33;;
1721;SDS011;858;53.190;8.596;2023-09-19T13:36:46;9.63;;;2.70;;
1721;SDS011;858;53.190;8.596;2023-09-19T13:39:14;8.60;;;2.83;;
1721;SDS011;858;53.190;8.596;2023-09-19T13:41:41;10.70;;;3.27;;
1721;SDS011;858;53.190;8.596;2023-09-19T13:44:08;6.83;;;2.37;;
1721;SDS011;858;53.190;8.596;2023-09-19T13:46:37;12.03;;;3.70;;
1721;SDS011;858;53.190;8.596;2023-09-19T13:49:03;10.17;;;3.63;;
1721;SDS011;858;53.190;8.596;2023-09-19T13:51:31;10.07;;;2.90;;
1721;SDS011;858;53.190;8.596;2023-09-19T13:53:58;5.77;;;2.43;;
1721;SDS011;858;53.190;8.596;2023-09-19T13:56:24;7.37;;;2.37;;
1721;SDS011;858;53.190;8.596;2023-09-19T13:58:52;5.77;;;2.30;;
1721;SDS011;858;53.190;8.596;2023-09-19T14:01:19;7.57;;;2.70;;
1721;SDS011;858;53.190;8.596;2023-09-19T14:03:47;8.63;;;3.00;;
1721;SDS011;858;53.190;8.596;2023-09-19T14:06:16;10.23;;;3.20;;
1721;SDS011;858;53.190;8.596;2023-09-19T14:08:43;11.33;;;2.80;;
1721;SDS011;858;53.190;8.596;2023-09-19T14:11:12;7.33;;;2.90;;
1721;SDS011;858;53.190;8.596;2023-09-19T14:13:40;12.47;;;2.90;;
1721;SDS011;858;53.190;8.596;2023-09-19T14:16:08;9.57;;;3.17;;
1721;SDS011;858;53.190;8.596;2023-09-19T14:18:36;7.47;;;2.70;;
1721;SDS011;858;53.190;8.596;2023-09-19T14:21:04;4.87;;;3.03;;
1721;SDS011;858;53.190;8.596;2023-09-19T14:23:34;6.80;;;2.77;;
1721;SDS011;858;53.190;8.596;2023-09-19T14:26:01;6.50;;;2.70;;
1721;SDS011;858;53.190;8.596;2023-09-19T14:28:27;5.13;;;2.50;;
1721;SDS011;858;53.190;8.596;2023-09-19T14:30:55;4.43;;;2.70;;
1721;SDS011;858;53.190;8.596;2023-09-19T14:33:21;11.20;;;3.00;;
1721;SDS011;858;53.190;8.596;2023-09-19T14:35:47;8.83;;;2.57;;
1721;SDS011;858;53.190;8.596;2023-09-19T14:38:16;4.60;;;2.20;;
1721;SDS011;858;53.190;8.596;2023-09-19T14:40:42;9.10;;;3.83;;
1721;SDS011;858;53.190;8.596;2023-09-19T14:43:08;6.17;;;2.60;;
1721;SDS011;858;53.190;8.596;2023-09-19T14:45:35;5.93;;;2.80;;
1721;SDS011;858;53.190;8.596;2023-09-19T14:48:03;7.70;;;2.47;;
1721;SDS011;858;53.190;8.596;2023-09-19T14:50:30;7.60;;;2.90;;
1721;SDS011;858;53.190;8.596;2023-09-19T14:52:57;7.53;;;2.63;;
1721;SDS011;858;53.190;8.596;2023-09-19T14:55:29;7.57;;;2.60;;
1721;SDS011;858;53.190;8.596;2023-09-19T14:57:59;6.87;;;2.60;;
1721;SDS011;858;53.190;8.596;2023-09-19T15:00:27;6.87;;;2.73;;
1721;SDS011;858;53.190;8.596;2023-09-19T15:02:54;5.80;;;3.27;;
1721;SDS011;858;53.190;8.596;2023-09-19T15:05:21;10.67;;;3.10;;
1721;SDS011;858;53.190;8.596;2023-09-19T15:07:47;7.43;;;2.20;;
1721;SDS011;858;53.190;8.596;2023-09-19T15:10:14;3.80;;;2.07;;
1721;SDS011;858;53.190;8.596;2023-09-19T15:12:42;7.80;;;2.37;;
1721;SDS011;858;53.190;8.596;2023-09-19T15:15:09;8.67;;;2.77;;
1721;SDS011;858;53.190;8.596;2023-09-19T15:17:38;8.33;;;2.63;;
1721;SDS011;858;53.190;8.596;2023-09-19T15:20:04;7.50;;;2.70;;
1721;SDS011;858;53.190;8.596;2023-09-19T15:22:32;19.60;;;3.20;;
1721;SDS011;858;53.190;8.596;2023-09-19T15:24:59;9.73;;;2.20;;
1721;SDS011;858;53.190;8.596;2023-09-19T15:27:26;6.83;;;3.10;;
1721;SDS011;858;53.190;8.596;2023-09-19T15:29:57;9.00;;;2.80;;
1721;SDS011;858;53.190;8.596;2023-09-19T15:32:24;8.00;;;2.00;;
1721;SDS011;858;53.190;8.596;2023-09-19T15:34:51;5.60;;;2.00;;
1721;SDS011;858;53.190;8.596;2023-09-19T15:37:17;6.70;;;2.47;;
1721;SDS011;858;53.190;8.596;2023-09-19T15:39:44;3.10;;;2.10;;
1721;SDS011;858;53.190;8.596;2023-09-19T15:42:11;9.27;;;2.20;;
1721;SDS011;858;53.190;8.596;2023-09-19T15:44:37;5.83;;;2.47;;
1721;SDS011;858;53.190;8.596;2023-09-19T15:47:06;12.53;;;2.73;;
1721;SDS011;858;53.190;8.596;2023-09-19T15:49:33;10.60;;;2.07;;
1721;SDS011;858;53.190;8.596;2023-09-19T15:52:00;5.23;;;2.27;;